world map with MUX marked

MUX - Airport

This information may not be accurate or current and is not valid for navigation or flight planning. No warranty of fitness for any purpose is made or implied.

flag of Punjabflag of Pakistan

Donate via PayPal

Additional information is available on the NEW Great Circle Mapper

Location
City:  Multan, Punjab, Pakistan
Name:Multan International Airport
ICAO / IATA:OPMT / MUX

Details
Type:Airport (Aerodrome, Airfield)
Use:Public/Civil
Latitude:30°12'12"N (30.203222)
Longitude:71°25'09"E (71.419111)
Datum:WGS 1984
Elevation:403 ft (123 m)
Runways:1
Longest:9046 × 98 ft (2757 × 30 m)

Time
Timezone:UTC+5 (DST+7)
Local Time:

Weather
METAR:OPMT  120700Z 36006KT 7000 NSC 18/11 Q1019 NOSIG
TAF:OPMT  (expired)

Related Locations
Nearby:
Farthest:IPC: 12215 mi / 19659 km
Easter Island (Isla de Pascua, Rapa Nui) [Mataveri Intl], VS, CL

Find:

   beyond  
but within

Other Information
Maps:
Sources:

  


 


Great Circle Mapper   Great Circle Mapper
Great Circle Mapper FAQ   Great Circle Mapper FAQ
  Karl's Home Page
KLSē   KLSē Home
   GC on Facebook
Airlines of the World   Airlines of the World
Donate via PayPal


Copyright © 2004-2018, Karl L. Swartz. All rights reserved.
All trademarks mentioned herein belong to their respective owners.

Please see credits for attribution and copyright information.

Karl Swartz <karl@kls2.com>
  Powered by FreeBSD
Valid HTML 4.01!
Labeled with ICRA
hCard Microformat
Geo Microformat